createdAt,value
2023-03-28T00:00:43.805Z,0.90
2023-03-28T00:03:14.466Z,0.80
2023-03-28T00:05:42.010Z,0.80
2023-03-28T00:08:09.671Z,0.80
2023-03-28T00:10:37.016Z,0.80
2023-03-28T00:13:05.432Z,0.80
2023-03-28T00:15:32.772Z,0.70
2023-03-28T00:18:01.148Z,0.80
2023-03-28T00:20:30.021Z,0.80
2023-03-28T00:22:57.545Z,0.70
2023-03-28T00:25:25.296Z,0.60
2023-03-28T00:27:52.527Z,0.60
2023-03-28T00:30:19.822Z,0.70
2023-03-28T00:32:49.347Z,0.70
2023-03-28T00:35:16.850Z,0.70
2023-03-28T00:37:45.793Z,0.70
2023-03-28T00:40:13.964Z,0.70
2023-03-28T00:42:42.815Z,0.80
2023-03-28T00:45:11.652Z,0.90
2023-03-28T00:47:49.416Z,0.90
2023-03-28T00:50:39.562Z,0.90
2023-03-28T00:53:26.343Z,0.90
2023-03-28T00:56:04.121Z,1.10
2023-03-28T00:58:37.770Z,1.00
2023-03-28T01:01:07.835Z,1.10
2023-03-28T01:03:37.420Z,1.10
2023-03-28T01:06:08.861Z,1.10
2023-03-28T01:08:41.731Z,1.00
2023-03-28T01:11:11.367Z,1.00
2023-03-28T01:13:43.889Z,1.00
2023-03-28T01:16:14.402Z,1.00
2023-03-28T01:18:46.948Z,1.00
2023-03-28T01:21:42.684Z,0.90
2023-03-28T01:24:38.802Z,0.90
2023-03-28T01:27:36.272Z,0.80
2023-03-28T01:30:25.583Z,0.80
2023-03-28T01:33:49.751Z,0.70
2023-03-28T01:36:42.969Z,0.80
2023-03-28T01:39:38.327Z,0.80
2023-03-28T01:42:50.971Z,0.70
2023-03-28T01:45:39.464Z,0.80
2023-03-28T01:48:17.291Z,0.70
2023-03-28T01:50:47.309Z,0.70
2023-03-28T01:53:51.287Z,0.70
2023-03-28T01:56:58.090Z,0.70
2023-03-28T01:59:44.261Z,0.60
2023-03-28T02:02:42.162Z,0.60
2023-03-28T02:05:34.686Z,0.70
2023-03-28T02:08:08.265Z,0.60
2023-03-28T02:10:43.617Z,0.60
2023-03-28T02:13:56.681Z,0.60
2023-03-28T02:16:41.415Z,0.50
2023-03-28T02:19:25.002Z,0.50
2023-03-28T02:22:38.470Z,0.50
2023-03-28T02:25:18.346Z,0.40
2023-03-28T02:28:01.147Z,0.50
2023-03-28T02:30:37.569Z,0.50
2023-03-28T02:33:09.588Z,0.50
2023-03-28T02:35:55.433Z,0.60
2023-03-28T02:38:48.574Z,0.60
2023-03-28T02:41:18.852Z,0.50
2023-03-28T02:44:27.245Z,0.50
2023-03-28T02:47:03.584Z,0.40
2023-03-28T02:50:09.689Z,0.40
2023-03-28T02:52:59.677Z,0.40
2023-03-28T02:55:50.085Z,0.30
2023-03-28T02:58:53.375Z,0.30
2023-03-28T03:01:21.962Z,0.20
2023-03-28T03:03:49.997Z,0.20
2023-03-28T03:06:17.973Z,0.20
2023-03-28T03:08:46.483Z,0.10
2023-03-28T03:11:15.901Z,0.20
2023-03-28T03:13:43.943Z,0.10
2023-03-28T03:16:11.395Z,0.10
2023-03-28T03:18:38.688Z,0.00
2023-03-28T03:21:06.326Z,0.10
2023-03-28T03:23:33.528Z,0.10
2023-03-28T03:26:00.917Z,0.10
2023-03-28T03:28:33.627Z,0.10
2023-03-28T03:31:04.044Z,0.10
2023-03-28T03:33:37.589Z,0.20
2023-03-28T03:36:06.732Z,0.20
2023-03-28T03:38:35.062Z,0.30
2023-03-28T03:41:02.983Z,0.30
2023-03-28T03:43:30.394Z,0.30
2023-03-28T03:45:59.086Z,0.30
2023-03-28T03:48:28.243Z,0.30
2023-03-28T03:50:58.667Z,0.20
2023-03-28T03:53:25.984Z,0.20
2023-03-28T03:56:06.427Z,0.10
2023-03-28T03:58:51.744Z,0.20
2023-03-28T04:01:19.715Z,0.20
2023-03-28T04:03:48.194Z,0.20
2023-03-28T04:06:23.400Z,0.30
2023-03-28T04:08:54.119Z,0.30
2023-03-28T04:11:38.073Z,0.30
2023-03-28T04:14:05.376Z,0.20
2023-03-28T04:16:41.060Z,0.10
2023-03-28T04:19:10.807Z,0.10
2023-03-28T04:21:41.557Z,0.10
2023-03-28T04:24:15.499Z,0.10
2023-03-28T04:26:50.139Z,0.00
2023-03-28T04:29:24.919Z,0.00
2023-03-28T04:32:12.791Z,0.00
2023-03-28T04:35:00.939Z,-0.10
2023-03-28T04:37:28.125Z,-0.10
2023-03-28T04:39:58.302Z,0.00
2023-03-28T04:42:43.513Z,0.00
2023-03-28T04:45:15.038Z,0.00
2023-03-28T04:47:43.901Z,0.00
2023-03-28T04:50:21.818Z,0.00
2023-03-28T04:52:49.108Z,0.00
2023-03-28T04:55:17.421Z,0.00
2023-03-28T04:57:46.848Z,0.10
2023-03-28T05:00:16.922Z,0.10
2023-03-28T05:03:00.246Z,0.00
2023-03-28T05:05:30.966Z,0.00
2023-03-28T05:07:59.047Z,0.00
2023-03-28T05:10:26.874Z,0.00
2023-03-28T05:13:00.759Z,-0.10
2023-03-28T05:15:28.509Z,-0.10
2023-03-28T05:18:03.886Z,-0.10
2023-03-28T05:20:34.111Z,-0.10
2023-03-28T05:23:02.787Z,0.00
2023-03-28T05:25:31.907Z,-0.10
2023-03-28T05:27:59.420Z,0.00
2023-03-28T05:30:27.077Z,0.00
2023-03-28T05:32:56.538Z,0.00
2023-03-28T05:35:23.790Z,0.00
2023-03-28T05:37:52.422Z,0.00
2023-03-28T05:40:20.181Z,-0.10
2023-03-28T05:42:47.486Z,-0.10
2023-03-28T05:45:18.448Z,-0.10
2023-03-28T05:47:52.448Z,-0.10
2023-03-28T05:50:21.253Z,0.00
2023-03-28T05:52:48.659Z,0.00
2023-03-28T05:55:16.017Z,0.10
2023-03-28T05:57:44.528Z,0.10
2023-03-28T06:00:15.299Z,0.10
2023-03-28T06:02:52.312Z,0.10
2023-03-28T06:05:31.394Z,0.10
2023-03-28T06:07:58.633Z,0.20
2023-03-28T06:10:29.655Z,0.30
2023-03-28T06:13:22.033Z,0.30
2023-03-28T06:15:49.367Z,0.30
2023-03-28T06:18:18.443Z,0.30
2023-03-28T06:20:48.917Z,0.40
2023-03-28T06:23:16.364Z,0.50
2023-03-28T06:25:44.543Z,0.70
2023-03-28T06:28:14.690Z,0.70
2023-03-28T06:31:12.080Z,0.80
2023-03-28T06:33:41.360Z,1.00
2023-03-28T06:36:09.276Z,1.10
2023-03-28T06:38:36.991Z,1.10
2023-03-28T06:41:06.395Z,1.10
2023-03-28T06:43:35.604Z,1.20
2023-03-28T06:46:13.598Z,1.20
2023-03-28T06:48:45.054Z,1.20
2023-03-28T06:51:24.788Z,1.30
2023-03-28T06:53:52.222Z,1.30
2023-03-28T06:56:25.069Z,1.30
2023-03-28T06:58:52.636Z,1.40
2023-03-28T07:01:24.870Z,1.50
2023-03-28T07:04:08.028Z,1.60
2023-03-28T07:06:36.719Z,1.60
2023-03-28T07:09:06.445Z,1.70
2023-03-28T07:11:40.330Z,1.90
2023-03-28T07:14:07.543Z,2.10
2023-03-28T07:16:34.787Z,2.10
2023-03-28T07:19:02.018Z,1.90
2023-03-28T07:21:33.553Z,1.90
2023-03-28T07:24:03.319Z,1.90
2023-03-28T07:26:42.376Z,2.00
2023-03-28T07:29:09.662Z,1.90
2023-03-28T07:31:37.131Z,1.80
2023-03-28T07:34:04.388Z,1.90
2023-03-28T07:36:31.714Z,1.80
2023-03-28T07:39:09.000Z,1.90
2023-03-28T07:41:36.326Z,1.70
2023-03-28T07:44:03.546Z,1.70
2023-03-28T07:46:32.138Z,1.70
2023-03-28T07:49:00.784Z,1.80
2023-03-28T07:51:28.317Z,2.00
2023-03-28T07:53:55.745Z,2.20
2023-03-28T07:56:23.440Z,2.40
2023-03-28T07:59:01.883Z,2.60
2023-03-28T08:01:29.276Z,2.70
2023-03-28T08:04:01.133Z,2.70
2023-03-28T08:06:39.948Z,2.70
2023-03-28T08:09:09.746Z,2.70
2023-03-28T08:11:45.824Z,2.90
2023-03-28T08:14:16.014Z,3.00
2023-03-28T08:16:47.404Z,3.00
2023-03-28T08:19:15.327Z,2.90
2023-03-28T08:22:16.592Z,3.00
2023-03-28T08:24:51.180Z,2.70
2023-03-28T08:27:23.289Z,2.80
2023-03-28T08:29:54.075Z,2.80
2023-03-28T08:32:21.436Z,2.70
2023-03-28T08:34:48.751Z,2.70
2023-03-28T08:37:19.569Z,3.00
2023-03-28T08:39:48.859Z,3.20
2023-03-28T08:42:23.450Z,3.30
2023-03-28T08:45:08.814Z,3.40
2023-03-28T08:47:45.406Z,3.60
2023-03-28T08:50:24.524Z,3.90
2023-03-28T08:52:52.737Z,3.90
2023-03-28T08:55:28.125Z,3.80
2023-03-28T08:57:56.028Z,3.60
2023-03-28T09:00:31.044Z,3.60
2023-03-28T09:02:59.067Z,3.90
2023-03-28T09:05:44.653Z,4.10
2023-03-28T09:08:50.915Z,4.30
2023-03-28T09:11:41.906Z,4.40
2023-03-28T09:14:24.565Z,4.00
2023-03-28T09:17:11.085Z,3.90
2023-03-28T09:19:58.477Z,3.80
2023-03-28T09:23:04.713Z,3.80
2023-03-28T09:26:07.760Z,3.80
2023-03-28T09:28:57.169Z,3.50
2023-03-28T09:31:30.076Z,3.50
2023-03-28T09:34:00.584Z,3.60
2023-03-28T09:36:49.672Z,3.80
2023-03-28T09:39:49.396Z,4.20
2023-03-28T09:42:27.579Z,4.30
2023-03-28T09:45:51.018Z,4.40
2023-03-28T09:48:38.285Z,4.50
2023-03-28T09:51:16.094Z,4.50
2023-03-28T09:53:43.940Z,4.60
2023-03-28T09:56:33.094Z,4.10
2023-03-28T09:59:29.138Z,4.10
2023-03-28T10:02:02.399Z,3.80
2023-03-28T10:04:39.005Z,3.70
2023-03-28T10:07:42.308Z,3.70
2023-03-28T10:10:34.981Z,3.80
2023-03-28T10:13:11.674Z,4.00
2023-03-28T10:15:43.817Z,3.90
2023-03-28T10:18:21.988Z,3.90
2023-03-28T10:21:26.454Z,3.80
2023-03-28T10:24:07.118Z,4.00
2023-03-28T10:26:36.032Z,4.00
2023-03-28T10:29:07.536Z,3.90
2023-03-28T10:31:38.846Z,4.10
2023-03-28T10:35:06.848Z,4.40
2023-03-28T10:37:48.319Z,4.30
2023-03-28T10:40:23.952Z,4.30
2023-03-28T10:43:14.623Z,4.50
2023-03-28T10:46:21.086Z,4.60
2023-03-28T10:49:13.462Z,4.80
2023-03-28T10:51:43.160Z,5.20
2023-03-28T10:54:21.790Z,5.30
2023-03-28T10:57:12.469Z,5.50
2023-03-28T10:59:51.522Z,5.40
2023-03-28T11:02:40.626Z,5.40
2023-03-28T11:05:55.072Z,5.40
2023-03-28T11:09:01.813Z,5.70
2023-03-28T11:12:07.269Z,6.00
2023-03-28T11:14:52.799Z,5.90
2023-03-28T11:17:34.643Z,5.60
2023-03-28T11:20:22.890Z,5.30
2023-03-28T11:23:06.455Z,5.30
2023-03-28T11:26:13.158Z,5.20
2023-03-28T11:29:30.428Z,5.60
2023-03-28T11:32:16.379Z,5.60
2023-03-28T11:34:49.922Z,5.40
2023-03-28T11:37:30.828Z,5.20
2023-03-28T11:40:01.115Z,5.10
2023-03-28T11:42:49.570Z,4.90
2023-03-28T11:45:47.247Z,5.20
2023-03-28T11:48:33.581Z,5.50
2023-03-28T11:51:29.063Z,5.90
2023-03-28T11:54:02.765Z,5.80
2023-03-28T11:56:43.349Z,5.80
2023-03-28T11:59:24.021Z,5.70
2023-03-28T12:02:01.493Z,5.50
2023-03-28T12:04:35.078Z,5.60
2023-03-28T12:07:32.194Z,5.80
2023-03-28T12:10:25.711Z,6.10
2023-03-28T12:13:18.826Z,6.40
2023-03-28T12:16:18.616Z,6.60
2023-03-28T12:19:09.765Z,6.50
2023-03-28T12:22:09.035Z,6.50
2023-03-28T12:25:13.583Z,6.70
2023-03-28T12:28:12.667Z,6.60
2023-03-28T12:30:50.403Z,6.70
2023-03-28T12:33:30.428Z,6.90
2023-03-28T12:36:17.498Z,7.00
2023-03-28T12:39:17.469Z,6.80
2023-03-28T12:41:47.361Z,6.90
2023-03-28T12:44:24.433Z,7.20
2023-03-28T12:46:59.703Z,7.10
2023-03-28T12:49:58.345Z,7.10
2023-03-28T12:52:32.442Z,6.90
2023-03-28T12:55:09.674Z,6.90
2023-03-28T12:57:45.171Z,6.90
2023-03-28T13:00:48.039Z,6.80
2023-03-28T13:04:13.576Z,6.90
2023-03-28T13:07:16.984Z,6.90
2023-03-28T13:10:04.672Z,6.70
2023-03-28T13:12:45.037Z,6.60
2023-03-28T13:15:14.921Z,6.80
2023-03-28T13:18:08.859Z,7.20
2023-03-28T13:20:45.732Z,7.20
2023-03-28T13:23:17.637Z,7.00
2023-03-28T13:25:57.509Z,7.30
2023-03-28T13:28:29.649Z,7.40
2023-03-28T13:31:07.506Z,7.50
2023-03-28T13:33:38.281Z,7.50
2023-03-28T13:36:05.828Z,7.50
2023-03-28T13:38:45.074Z,7.30
2023-03-28T13:41:55.066Z,7.50
2023-03-28T13:44:29.256Z,7.50
2023-03-28T13:46:57.126Z,7.10
2023-03-28T13:49:30.449Z,7.10
2023-03-28T13:52:04.707Z,7.20
2023-03-28T13:54:32.381Z,7.40
2023-03-28T13:57:08.604Z,7.60
2023-03-28T13:59:49.275Z,7.70
2023-03-28T14:02:19.588Z,7.70
2023-03-28T14:05:03.978Z,7.70
2023-03-28T14:07:31.230Z,7.70
2023-03-28T14:09:58.448Z,7.70
2023-03-28T14:12:30.406Z,7.90
2023-03-28T14:15:00.349Z,8.10
2023-03-28T14:17:32.555Z,8.20
2023-03-28T14:20:04.705Z,8.40
2023-03-28T14:22:33.749Z,8.50
2023-03-28T14:25:03.709Z,8.60
2023-03-28T14:27:39.933Z,8.70
2023-03-28T14:30:24.658Z,8.60
2023-03-28T14:32:58.885Z,8.40
2023-03-28T14:35:29.468Z,8.50
2023-03-28T14:38:01.907Z,8.50
2023-03-28T14:40:40.977Z,8.50
2023-03-28T14:43:12.998Z,8.40
2023-03-28T14:45:47.884Z,8.40
2023-03-28T14:48:19.582Z,8.40
2023-03-28T14:50:50.764Z,8.50
2023-03-28T14:53:24.414Z,8.50
2023-03-28T14:55:54.440Z,8.50
2023-03-28T14:58:24.513Z,8.40
2023-03-28T15:00:54.893Z,8.30
2023-03-28T15:03:43.693Z,8.30
2023-03-28T15:06:16.288Z,8.00
2023-03-28T15:08:45.520Z,7.90
2023-03-28T15:11:20.437Z,7.90
2023-03-28T15:13:50.872Z,8.00
2023-03-28T15:16:25.940Z,7.80
2023-03-28T15:19:28.375Z,7.80
2023-03-28T15:22:00.155Z,7.80
2023-03-28T15:24:28.641Z,7.90
2023-03-28T15:27:01.417Z,8.00
2023-03-28T15:29:33.517Z,8.10
2023-03-28T15:32:05.057Z,8.10
2023-03-28T15:34:43.746Z,8.10
2023-03-28T15:37:22.071Z,8.10
2023-03-28T15:39:50.875Z,8.00
2023-03-28T15:42:23.526Z,8.10
2023-03-28T15:44:56.744Z,8.00
2023-03-28T15:47:27.625Z,8.00
2023-03-28T15:50:13.352Z,8.10
2023-03-28T15:52:44.049Z,8.10
2023-03-28T15:55:20.621Z,8.10
2023-03-28T15:57:48.167Z,8.00
2023-03-28T16:00:42.582Z,8.00
2023-03-28T16:03:26.533Z,8.00
2023-03-28T16:06:09.681Z,8.00
2023-03-28T16:08:42.279Z,8.00
2023-03-28T16:11:16.246Z,8.10
2023-03-28T16:14:03.470Z,8.20
2023-03-28T16:16:55.749Z,8.10
2023-03-28T16:19:34.031Z,8.30
2023-03-28T16:22:01.486Z,8.30
2023-03-28T16:24:28.737Z,8.30
2023-03-28T16:26:56.326Z,8.40
2023-03-28T16:29:23.492Z,8.40
2023-03-28T16:31:51.194Z,8.40
2023-03-28T16:34:18.386Z,8.50
2023-03-28T16:36:45.788Z,8.50
2023-03-28T16:39:13.017Z,8.60
2023-03-28T16:41:40.427Z,8.60
2023-03-28T16:44:07.957Z,8.60
2023-03-28T16:46:35.414Z,8.50
2023-03-28T16:49:02.819Z,8.50
2023-03-28T16:51:29.964Z,8.50
2023-03-28T16:53:57.366Z,8.40
2023-03-28T16:56:27.383Z,8.40
2023-03-28T16:58:54.623Z,8.30
2023-03-28T17:01:22.749Z,8.10
2023-03-28T17:03:52.511Z,7.90
2023-03-28T17:06:20.043Z,7.90
2023-03-28T17:08:47.993Z,7.80
2023-03-28T17:11:15.708Z,7.80
2023-03-28T17:13:43.029Z,7.70
2023-03-28T17:16:11.157Z,7.60
2023-03-28T17:18:38.406Z,7.50
2023-03-28T17:21:08.297Z,7.50
2023-03-28T17:23:37.895Z,7.40
2023-03-28T17:26:07.627Z,7.20
2023-03-28T17:28:39.059Z,7.10
2023-03-28T17:31:13.579Z,7.10
2023-03-28T17:33:41.054Z,7.00
2023-03-28T17:36:21.237Z,6.90
2023-03-28T17:38:54.140Z,6.80
2023-03-28T17:41:24.872Z,6.70
2023-03-28T17:43:53.185Z,6.60
2023-03-28T17:46:21.397Z,6.50
2023-03-28T17:48:49.129Z,6.40
2023-03-28T17:51:17.421Z,6.30
2023-03-28T17:53:46.849Z,6.20
2023-03-28T17:56:16.166Z,6.10
2023-03-28T17:58:44.444Z,6.10
2023-03-28T18:01:14.603Z,6.00
2023-03-28T18:03:42.206Z,6.00
2023-03-28T18:06:22.925Z,5.90
2023-03-28T18:08:50.172Z,5.90
2023-03-28T18:11:18.085Z,5.80
2023-03-28T18:13:45.275Z,5.80
2023-03-28T18:16:15.882Z,5.80
2023-03-28T18:18:43.247Z,5.80
2023-03-28T18:21:11.643Z,5.80
2023-03-28T18:23:38.828Z,5.80
2023-03-28T18:26:06.673Z,5.70
2023-03-28T18:28:34.645Z,5.70
2023-03-28T18:31:14.270Z,5.60
2023-03-28T18:33:45.675Z,5.60
2023-03-28T18:36:13.971Z,5.50
2023-03-28T18:38:43.326Z,5.50
2023-03-28T18:41:12.371Z,5.40
2023-03-28T18:43:41.945Z,5.40
2023-03-28T18:46:15.257Z,5.30
2023-03-28T18:48:44.498Z,5.30
2023-03-28T18:51:11.965Z,5.20
2023-03-28T18:53:39.204Z,5.10
2023-03-28T18:56:07.282Z,5.00
2023-03-28T18:58:36.609Z,4.90
2023-03-28T19:01:04.228Z,4.90
2023-03-28T19:03:38.430Z,4.80
2023-03-28T19:06:08.029Z,4.80
2023-03-28T19:08:35.458Z,4.70
2023-03-28T19:11:09.483Z,4.70
2023-03-28T19:13:36.684Z,4.60
2023-03-28T19:16:06.851Z,4.50
2023-03-28T19:18:37.311Z,4.50
2023-03-28T19:21:04.923Z,4.40
2023-03-28T19:23:32.318Z,4.30
2023-03-28T19:26:00.571Z,4.20
2023-03-28T19:28:27.982Z,4.10
2023-03-28T19:30:59.777Z,4.00
2023-03-28T19:33:27.786Z,4.00
2023-03-28T19:35:55.550Z,3.90
2023-03-28T19:38:24.322Z,3.90
2023-03-28T19:40:58.091Z,3.90
2023-03-28T19:43:26.127Z,4.00
2023-03-28T19:45:53.596Z,3.80
2023-03-28T19:48:21.003Z,3.70
2023-03-28T19:50:50.834Z,3.70
2023-03-28T19:53:18.035Z,3.60
2023-03-28T19:55:52.112Z,3.60
2023-03-28T19:58:19.643Z,3.60
2023-03-28T20:00:48.100Z,3.60
2023-03-28T20:03:16.194Z,3.50
2023-03-28T20:05:48.164Z,3.50
2023-03-28T20:08:16.088Z,3.40
2023-03-28T20:10:51.433Z,3.40
2023-03-28T20:13:19.010Z,3.30
2023-03-28T20:15:47.119Z,3.40
2023-03-28T20:18:20.614Z,3.40
2023-03-28T20:20:53.039Z,3.40
2023-03-28T20:23:23.341Z,3.40
2023-03-28T20:25:52.133Z,3.40
2023-03-28T20:28:24.328Z,3.40
2023-03-28T20:30:53.182Z,3.40
2023-03-28T20:33:21.349Z,3.40
2023-03-28T20:35:57.076Z,3.30
2023-03-28T20:38:25.606Z,3.30
2023-03-28T20:40:53.287Z,3.30
2023-03-28T20:43:20.773Z,3.20
2023-03-28T20:45:55.471Z,3.20
2023-03-28T20:48:34.412Z,3.20
2023-03-28T20:51:13.810Z,3.20
2023-03-28T20:53:42.466Z,3.30
2023-03-28T20:56:11.561Z,3.40
2023-03-28T20:58:39.518Z,3.30
2023-03-28T21:01:09.941Z,3.30
2023-03-28T21:03:58.660Z,3.40
2023-03-28T21:06:35.947Z,3.40
2023-03-28T21:09:06.049Z,3.40
2023-03-28T21:11:36.518Z,3.40
2023-03-28T21:14:05.462Z,3.50
2023-03-28T21:16:33.958Z,3.40
2023-03-28T21:19:02.461Z,3.30
2023-03-28T21:21:30.324Z,3.30
2023-03-28T21:23:57.562Z,3.40
2023-03-28T21:26:24.846Z,3.40
2023-03-28T21:28:52.842Z,3.40
2023-03-28T21:31:25.491Z,3.40
2023-03-28T21:33:56.723Z,3.40
2023-03-28T21:36:24.580Z,3.40
2023-03-28T21:38:52.020Z,3.40
2023-03-28T21:41:19.311Z,3.40
2023-03-28T21:43:47.631Z,3.40
2023-03-28T21:46:18.051Z,3.50
2023-03-28T21:48:47.528Z,3.50
2023-03-28T21:51:15.505Z,3.50
2023-03-28T21:53:42.876Z,3.50
2023-03-28T21:56:12.574Z,3.50
2023-03-28T21:58:40.245Z,3.50
2023-03-28T22:01:08.873Z,3.50
2023-03-28T22:03:37.380Z,3.50
2023-03-28T22:06:07.485Z,3.50
2023-03-28T22:08:34.912Z,3.50
2023-03-28T22:11:04.225Z,3.50
2023-03-28T22:13:31.820Z,3.50
2023-03-28T22:15:59.839Z,3.40
2023-03-28T22:18:28.276Z,3.50
2023-03-28T22:20:55.570Z,3.50
2023-03-28T22:23:24.338Z,3.50
2023-03-28T22:25:52.570Z,3.50
2023-03-28T22:28:24.114Z,3.50
2023-03-28T22:30:55.642Z,3.50
2023-03-28T22:33:25.168Z,3.50
2023-03-28T22:35:53.048Z,3.50
2023-03-28T22:38:20.628Z,3.60
2023-03-28T22:40:47.928Z,3.50
2023-03-28T22:43:16.474Z,3.60
2023-03-28T22:45:43.800Z,3.60
2023-03-28T22:48:14.182Z,3.50
2023-03-28T22:50:44.062Z,3.60
2023-03-28T22:53:12.257Z,3.60
2023-03-28T22:55:40.114Z,3.60
2023-03-28T22:58:08.103Z,3.50
2023-03-28T23:00:36.170Z,3.50
2023-03-28T23:03:04.117Z,3.50
2023-03-28T23:05:31.885Z,3.50
2023-03-28T23:08:00.093Z,3.50
2023-03-28T23:10:27.917Z,3.40
2023-03-28T23:12:55.110Z,3.30
2023-03-28T23:15:22.447Z,3.20
2023-03-28T23:17:50.291Z,3.30
2023-03-28T23:20:19.072Z,3.30
2023-03-28T23:22:48.444Z,3.40
2023-03-28T23:25:18.347Z,3.40
2023-03-28T23:27:46.581Z,3.30
2023-03-28T23:30:15.885Z,3.30
2023-03-28T23:32:43.381Z,3.30
2023-03-28T23:35:11.591Z,3.30
2023-03-28T23:37:39.292Z,3.40
2023-03-28T23:40:13.980Z,3.30
2023-03-28T23:42:45.271Z,3.30
2023-03-28T23:45:14.793Z,3.40
2023-03-28T23:47:43.747Z,3.40
2023-03-28T23:50:12.021Z,3.40
2023-03-28T23:52:39.860Z,3.40
2023-03-28T23:55:08.466Z,3.30
2023-03-28T23:57:35.963Z,3.30
